South Milford, Indiana
Current Conditions -  °F | °C
As of 7:35 PM on Wednesday 28 Jan 2015 (Local Time) from KANQ Reporting Station
Clear Clear  
Wind Chill: 11°   Ceiling: Unl
Heat Index: 21°   Visibility: 10mi
Dew Point: 14°   Wind: 9mph
Humidity: 74%   Direction: 150°SSE
Pressure: 30.15"   Gusts: NA
Location:  41.53°N, 85.27°W
Report Text: KANQ 290035Z AUTO 15008KT 10SM CLR M06/M10 A3015 RMK
Loading
Personal Weather Stations






























Interactive Weather Map New forecast layout! Learn more

10-Day Weather Forecast

Advertisements
Track Severe Weather on mobile